Time;durP1;ratioP1;P1;durP2;ratioP2;P2;SDS_P1;SDS_P2;PMS_P1;PMS_P2;Temp;Humidity;BMP_temperature;BMP_pressure;BME280_temperature;BME280_humidity;BME280_pressure;Samples;Min_cycle;Max_cycle;Signal;HPM_P1;HPM_P2
2021/03/14 12:07:29;;;;;;;49.25;47.20;;;;;;;;;;5111448;27;20540;-72
2021/03/14 12:09:55;;;;;;;58.53;55.95;;;;;;;;;;5111560;28;20171;-72
2021/03/14 12:12:21;;;;;;;62.42;59.63;;;;;;;;;;5110215;28;20619;-72
2021/03/14 12:14:47;;;;;;;65.07;62.20;;;;;;;;;;5111549;28;20202;-72
2021/03/14 12:17:13;;;;;;;71.18;67.88;;;;;;;;;;5111459;28;20701;-71
2021/03/14 13:02:49;;;;;;;42.42;40.47;;;;;;;;;;5090907;28;20507;-73
2021/03/14 13:05:15;;;;;;;51.70;49.60;;;;;;;;;;5091097;28;20624;-72
2021/03/14 13:07:41;;;;;;;47.60;45.60;;;;;;;;;;5091021;28;20251;-73
2021/03/14 13:10:11;;;;;;;53.92;51.67;;;;;;;;;;5089728;28;20258;-72
2021/03/14 13:12:37;;;;;;;65.68;62.85;;;;;;;;;;5090907;28;20172;-73
2021/03/14 13:15:05;;;;;;;65.45;62.58;;;;;;;;;;5090939;28;20267;-72
2021/03/14 13:17:31;;;;;;;66.78;63.33;;;;;;;;;;5089880;28;20172;-72
2021/03/14 13:19:57;;;;;;;75.63;72.28;;;;;;;;;;5090844;28;20168;-72
2021/03/14 13:22:23;;;;;;;64.30;61.28;;;;;;;;;;5090764;28;20728;-72
2021/03/14 13:24:49;;;;;;;64.60;61.75;;;;;;;;;;5090783;28;20202;-72
2021/03/14 13:27:15;;;;;;;76.15;72.88;;;;;;;;;;5090737;28;20243;-72
2021/03/14 13:29:41;;;;;;;141.80;135.23;;;;;;;;;;5090754;28;20269;-72
2021/03/14 13:32:07;;;;;;;151.55;144.55;;;;;;;;;;5090528;28;20217;-73
2021/03/14 13:34:33;;;;;;;172.70;164.60;;;;;;;;;;5090375;28;20174;-72
2021/03/14 13:36:59;;;;;;;174.05;165.82;;;;;;;;;;5090612;28;20645;-73
2021/03/14 13:39:25;;;;;;;168.88;160.98;;;;;;;;;;5090371;28;20167;-73
2021/03/14 13:41:51;;;;;;;173.43;165.30;;;;;;;;;;5090128;28;20199;-73
2021/03/14 13:44:17;;;;;;;177.52;169.15;;;;;;;;;;5090270;28;20225;-72
2021/03/14 13:46:43;;;;;;;175.63;167.10;;;;;;;;;;5090391;28;20576;-72
2021/03/14 13:49:09;;;;;;;170.70;162.75;;;;;;;;;;5090201;28;20172;-73
2021/03/14 13:51:35;;;;;;;172.30;164.30;;;;;;;;;;5090309;28;20175;-72
2021/03/14 14:17:35;;;;;;;59.20;56.72;;;;;;;;;;5091227;28;20590;-70
2021/03/14 14:20:01;;;;;;;61.63;59.03;;;;;;;;;;5089857;28;20558;-70
2021/03/14 14:22:27;;;;;;;61.40;58.80;;;;;;;;;;5090923;28;20521;-71
2021/03/14 14:24:53;;;;;;;62.95;60.30;;;;;;;;;;5089805;28;20171;-71
2021/03/14 14:27:19;;;;;;;62.95;60.25;;;;;;;;;;5089622;28;20667;-71
2021/03/14 14:29:45;;;;;;;61.33;58.72;;;;;;;;;;5090978;28;20172;-71
2021/03/14 14:32:11;;;;;;;66.97;64.10;;;;;;;;;;5090869;28;20220;-71
2021/03/14 14:34:37;;;;;;;68.25;65.00;;;;;;;;;;5090591;28;20266;-71
2021/03/14 14:37:04;;;;;;;69.47;66.40;;;;;;;;;;5090586;28;20195;-72
2021/03/14 14:39:30;;;;;;;75.03;71.78;;;;;;;;;;5090583;28;20209;-71
2021/03/14 14:41:56;;;;;;;72.40;69.30;;;;;;;;;;5090581;28;20168;-72
2021/03/14 14:44:22;;;;;;;77.25;73.65;;;;;;;;;;5089248;28;20179;-72
2021/03/14 14:46:48;;;;;;;74.75;71.55;;;;;;;;;;5090542;28;20183;-72
2021/03/14 14:49:17;;;;;;;92.13;88.07;;;;;;;;;;5090278;28;20172;-72
2021/03/14 14:51:43;;;;;;;114.00;108.95;;;;;;;;;;5090323;28;20257;-72
2021/03/14 14:54:09;;;;;;;120.03;114.45;;;;;;;;;;5090319;28;20170;-72
2021/03/14 14:56:35;;;;;;;130.85;124.88;;;;;;;;;;5090351;28;20661;-72
2021/03/14 14:59:01;;;;;;;147.02;140.25;;;;;;;;;;5090150;28;20192;-72
2021/03/14 15:01:27;;;;;;;157.60;150.23;;;;;;;;;;5090168;28;20566;-72
2021/03/14 15:03:53;;;;;;;153.63;146.50;;;;;;;;;;5090010;28;20645;-71
2021/03/14 15:06:19;;;;;;;155.20;148.05;;;;;;;;;;5090120;28;20182;-72
2021/03/14 15:08:45;;;;;;;144.65;137.95;;;;;;;;;;5089944;28;20562;-72
2021/03/14 15:11:11;;;;;;;143.25;136.70;;;;;;;;;;5089897;28;20168;-72
2021/03/14 15:13:38;;;;;;;141.98;135.25;;;;;;;;;;5089946;28;20538;-72
2021/03/14 15:16:04;;;;;;;141.73;135.20;;;;;;;;;;5089709;28;20264;-72
2021/03/14 15:18:30;;;;;;;135.43;129.23;;;;;;;;;;5090016;28;20298;-72
2021/03/14 15:20:56;;;;;;;121.55;116.05;;;;;;;;;;5089801;28;20527;-72
2021/03/14 15:23:23;;;;;;;135.20;128.93;;;;;;;;;;5089609;28;20159;-71
2021/03/14 15:25:49;;;;;;;145.88;139.18;;;;;;;;;;5089844;28;20251;-72
2021/03/14 15:28:15;;;;;;;153.77;146.30;;;;;;;;;;5080180;28;20250;-72
2021/03/14 15:30:41;;;;;;;151.45;144.50;;;;;;;;;;5076113;28;20172;-72
2021/03/14 15:33:07;;;;;;;153.88;146.73;;;;;;;;;;5075920;28;20172;-72
2021/03/14 15:35:33;;;;;;;154.65;147.52;;;;;;;;;;5075824;28;20490;-72
2021/03/14 15:38:00;;;;;;;153.38;146.20;;;;;;;;;;5075856;28;20161;-72
2021/03/14 15:40:27;;;;;;;133.05;127.03;;;;;;;;;;5075760;28;20169;-72
2021/03/14 15:42:53;;;;;;;83.68;79.97;;;;;;;;;;5075834;28;20175;-72
2021/03/14 15:45:19;;;;;;;73.45;70.28;;;;;;;;;;5074552;28;20168;-72
2021/03/14 15:47:45;;;;;;;80.40;76.80;;;;;;;;;;5075647;28;20256;-72
2021/03/14 15:50:11;;;;;;;80.88;77.03;;;;;;;;;;5075889;28;20618;-72
2021/03/14 15:52:37;;;;;;;151.55;144.52;;;;;;;;;;5075916;28;20184;-71
2021/03/14 15:55:03;;;;;;;173.38;165.18;;;;;;;;;;5075689;28;20645;-72
2021/03/14 15:57:29;;;;;;;169.25;161.35;;;;;;;;;;5075656;28;20173;-72
2021/03/14 15:59:55;;;;;;;162.57;154.75;;;;;;;;;;5074505;28;20215;-72
2021/03/14 16:02:21;;;;;;;166.25;158.48;;;;;;;;;;5074349;28;20223;-72
2021/03/14 16:04:47;;;;;;;150.48;143.48;;;;;;;;;;5075438;28;20168;-72
2021/03/14 16:07:13;;;;;;;151.57;144.48;;;;;;;;;;5074076;28;20666;-71
2021/03/14 16:09:40;;;;;;;161.60;153.48;;;;;;;;;;5075254;28;20168;-72
2021/03/14 16:12:13;;;;;;;170.63;162.65;;;;;;;;;;5075496;28;20190;-72
2021/03/14 16:14:39;;;;;;;161.63;154.07;;;;;;;;;;5075272;28;20176;-71
2021/03/14 16:17:05;;;;;;;159.77;152.32;;;;;;;;;;5075113;28;20227;-72
2021/03/14 16:19:31;;;;;;;156.98;149.68;;;;;;;;;;5075293;28;20172;-72
2021/03/14 16:21:56;;;;;;;154.98;147.73;;;;;;;;;;5073929;28;20172;-72
2021/03/14 16:24:22;;;;;;;159.00;151.60;;;;;;;;;;5075282;28;20199;-71
2021/03/14 16:26:48;;;;;;;159.77;152.25;;;;;;;;;;5073894;28;20200;-71
2021/03/14 16:29:14;;;;;;;150.55;143.60;;;;;;;;;;5075128;28;20534;-71
2021/03/14 16:31:40;;;;;;;128.63;122.60;;;;;;;;;;5074853;28;20168;-71
2021/03/14 16:34:06;;;;;;;118.38;112.75;;;;;;;;;;5074956;28;20171;-71
2021/03/14 16:36:37;;;;;;;112.85;107.75;;;;;;;;;;5073665;28;20537;-71
2021/03/14 16:39:04;;;;;;;108.63;103.72;;;;;;;;;;5073884;28;20171;-71
2021/03/14 16:41:30;;;;;;;108.63;103.80;;;;;;;;;;5073608;28;20553;-71
2021/03/14 16:43:56;;;;;;;111.90;106.85;;;;;;;;;;5073513;28;20172;-71
2021/03/14 16:46:22;;;;;;;114.78;109.68;;;;;;;;;;5074425;28;20246;-71
2021/03/14 16:48:48;;;;;;;120.80;115.40;;;;;;;;;;5074551;28;20172;-71
2021/03/14 16:51:14;;;;;;;110.43;105.43;;;;;;;;;;5074526;28;20621;-71
